createdAt,value
2022-09-23T00:01:28.525Z,21.30
2022-09-23T00:03:59.748Z,21.30
2022-09-23T00:06:29.713Z,21.30
2022-09-23T00:08:58.767Z,21.30
2022-09-23T00:11:30.504Z,21.30
2022-09-23T00:14:01.461Z,21.30
2022-09-23T00:16:34.442Z,21.30
2022-09-23T00:19:03.798Z,21.30
2022-09-23T00:21:32.673Z,21.40
2022-09-23T00:24:02.599Z,21.40
2022-09-23T00:26:32.862Z,21.40
2022-09-23T00:29:02.206Z,21.30
2022-09-23T00:31:31.971Z,21.30
2022-09-23T00:34:02.553Z,21.30
2022-09-23T00:36:32.569Z,21.30
2022-09-23T00:39:04.479Z,21.30
2022-09-23T00:41:35.425Z,21.40
2022-09-23T00:44:19.561Z,21.40
2022-09-23T00:46:48.585Z,21.40
2022-09-23T00:49:26.302Z,21.40
2022-09-23T00:51:59.991Z,21.40
2022-09-23T00:54:31.352Z,21.30
2022-09-23T00:57:04.024Z,21.20
2022-09-23T00:59:33.521Z,21.20
2022-09-23T01:02:05.106Z,21.10
2022-09-23T01:04:34.587Z,20.90
2022-09-23T01:07:03.525Z,20.90
2022-09-23T01:09:32.572Z,21.00
2022-09-23T01:12:15.757Z,21.10
2022-09-23T01:14:53.013Z,21.10
2022-09-23T01:17:27.616Z,21.10
2022-09-23T01:20:26.121Z,21.30
2022-09-23T01:23:02.854Z,21.30
2022-09-23T01:26:04.159Z,21.20
2022-09-23T01:29:01.058Z,21.10
2022-09-23T01:31:38.163Z,21.10
2022-09-23T01:34:15.273Z,21.10
2022-09-23T01:36:50.376Z,21.10
2022-09-23T01:39:25.084Z,21.10
2022-09-23T01:42:02.811Z,21.10
2022-09-23T01:44:39.350Z,21.00
2022-09-23T01:47:15.374Z,21.00
2022-09-23T01:49:48.961Z,21.10
2022-09-23T01:52:25.886Z,21.10
2022-09-23T01:55:03.895Z,20.90
2022-09-23T01:57:37.542Z,20.80
2022-09-23T02:00:12.342Z,20.90
2022-09-23T02:02:50.286Z,21.00
2022-09-23T02:05:23.500Z,21.00
2022-09-23T02:07:58.173Z,21.20
2022-09-23T02:10:32.282Z,21.20
2022-09-23T02:13:07.595Z,21.20
2022-09-23T02:15:38.950Z,21.20
2022-09-23T02:18:14.734Z,21.20
2022-09-23T02:20:44.631Z,21.10
2022-09-23T02:23:14.857Z,21.00
2022-09-23T02:25:56.303Z,20.90
2022-09-23T02:28:32.786Z,21.00
2022-09-23T02:31:09.622Z,21.10
2022-09-23T02:33:45.432Z,21.10
2022-09-23T02:36:23.537Z,21.10
2022-09-23T02:38:57.615Z,21.20
2022-09-23T02:41:32.905Z,21.10
2022-09-23T02:44:05.221Z,21.20
2022-09-23T02:46:35.146Z,21.20
2022-09-23T02:49:11.570Z,21.10
2022-09-23T02:51:41.631Z,21.20
2022-09-23T02:54:15.036Z,21.20
2022-09-23T02:56:44.363Z,21.10
2022-09-23T02:59:17.336Z,21.00
2022-09-23T03:01:56.571Z,20.90
2022-09-23T03:04:36.298Z,21.00
2022-09-23T03:07:10.915Z,21.00
2022-09-23T03:09:47.331Z,20.90
2022-09-23T03:12:21.760Z,20.90
2022-09-23T03:14:58.130Z,21.00
2022-09-23T03:17:32.990Z,21.00
2022-09-23T03:20:09.691Z,21.10
2022-09-23T03:22:44.197Z,21.10
2022-09-23T03:25:17.313Z,20.90
2022-09-23T03:27:47.043Z,21.00
2022-09-23T03:30:16.899Z,21.10
2022-09-23T03:32:48.158Z,20.90
2022-09-23T03:35:19.073Z,20.90
2022-09-23T03:37:54.711Z,21.00
2022-09-23T03:40:28.374Z,21.00
2022-09-23T03:42:58.746Z,21.00
2022-09-23T03:45:31.156Z,21.00
2022-09-23T03:48:00.573Z,21.00
2022-09-23T03:50:31.157Z,20.90
2022-09-23T03:53:00.108Z,20.90
2022-09-23T03:55:29.104Z,20.90
2022-09-23T03:57:58.289Z,20.90
2022-09-23T04:00:27.438Z,20.80
2022-09-23T04:02:57.438Z,20.90
2022-09-23T04:05:26.330Z,20.80
2022-09-23T04:07:57.185Z,20.90
2022-09-23T04:10:26.212Z,20.80
2022-09-23T04:12:55.073Z,20.70
2022-09-23T04:15:24.114Z,20.60
2022-09-23T04:17:53.062Z,20.70
2022-09-23T04:20:22.146Z,20.70
2022-09-23T04:22:50.992Z,20.80
2022-09-23T04:25:21.559Z,20.80
2022-09-23T04:27:50.446Z,20.90
2022-09-23T04:30:19.747Z,20.90
2022-09-23T04:32:48.649Z,20.90
2022-09-23T04:35:17.641Z,21.00
2022-09-23T04:37:49.433Z,21.10
2022-09-23T04:40:19.412Z,21.10
2022-09-23T04:42:50.538Z,21.10
2022-09-23T04:45:19.555Z,21.00
2022-09-23T04:47:48.746Z,21.00
2022-09-23T04:50:18.056Z,21.00
2022-09-23T04:52:46.963Z,20.90
2022-09-23T04:55:16.162Z,20.70
2022-09-23T04:57:45.711Z,20.80
2022-09-23T05:00:17.264Z,21.00
2022-09-23T05:02:47.129Z,21.00
2022-09-23T05:05:21.298Z,21.00
2022-09-23T05:07:50.692Z,21.00
2022-09-23T05:10:19.845Z,20.90
2022-09-23T05:12:49.193Z,20.90
2022-09-23T05:15:21.558Z,21.00
2022-09-23T05:17:50.728Z,20.90
2022-09-23T05:20:19.685Z,20.90
2022-09-23T05:22:48.636Z,20.90
2022-09-23T05:25:17.638Z,21.00
2022-09-23T05:27:46.628Z,21.00
2022-09-23T05:30:15.676Z,21.00
2022-09-23T05:32:46.051Z,21.00
2022-09-23T05:35:15.092Z,20.80
2022-09-23T05:37:44.042Z,20.90
2022-09-23T05:40:13.125Z,20.90
2022-09-23T05:42:42.079Z,20.80
2022-09-23T05:45:11.640Z,20.80
2022-09-23T05:47:41.086Z,20.70
2022-09-23T05:50:12.400Z,20.80
2022-09-23T05:52:41.737Z,20.80
2022-09-23T05:55:11.815Z,21.00
2022-09-23T05:57:40.900Z,21.00
2022-09-23T06:00:11.777Z,21.00
2022-09-23T06:02:43.809Z,21.10
2022-09-23T06:05:15.262Z,21.10
2022-09-23T06:07:44.482Z,21.10
2022-09-23T06:10:13.727Z,21.20
2022-09-23T06:12:45.134Z,21.20
2022-09-23T06:15:14.137Z,21.30
2022-09-23T06:17:43.003Z,21.30
2022-09-23T06:20:13.684Z,21.30
2022-09-23T06:22:42.682Z,21.30
2022-09-23T06:25:12.417Z,21.40
2022-09-23T06:27:41.389Z,21.40
2022-09-23T06:30:11.627Z,21.40
2022-09-23T06:32:40.589Z,21.50
2022-09-23T06:35:22.239Z,21.50
2022-09-23T06:37:58.237Z,21.50
2022-09-23T06:40:27.301Z,21.60
2022-09-23T06:43:00.331Z,21.60
2022-09-23T06:45:29.771Z,21.60
2022-09-23T06:47:59.923Z,21.60
2022-09-23T06:50:29.810Z,21.60
2022-09-23T06:53:00.348Z,21.60
2022-09-23T06:55:29.993Z,21.70
2022-09-23T06:58:00.398Z,21.70
2022-09-23T07:00:29.468Z,21.80
2022-09-23T07:02:58.477Z,21.80
2022-09-23T07:05:27.458Z,21.90
2022-09-23T07:07:56.345Z,21.90
2022-09-23T07:10:29.332Z,22.00
2022-09-23T07:13:02.261Z,22.10
2022-09-23T07:15:31.617Z,22.10
2022-09-23T07:18:00.666Z,22.20
2022-09-23T07:20:29.710Z,22.20
2022-09-23T07:22:58.891Z,22.00
2022-09-23T07:25:29.575Z,22.10
2022-09-23T07:27:58.367Z,22.30
2022-09-23T07:30:27.594Z,22.40
2022-09-23T07:32:56.431Z,22.40
2022-09-23T07:35:28.276Z,22.50
2022-09-23T07:37:57.535Z,22.50
2022-09-23T07:40:26.934Z,22.50
2022-09-23T07:42:57.536Z,22.60
2022-09-23T07:45:27.873Z,22.70
2022-09-23T07:47:57.065Z,22.80
2022-09-23T07:50:26.345Z,22.90
2022-09-23T07:52:56.068Z,22.80
2022-09-23T07:55:25.024Z,22.90
2022-09-23T07:57:53.917Z,23.00
2022-09-23T08:00:24.728Z,23.00
2022-09-23T08:02:54.334Z,23.00
2022-09-23T08:05:23.448Z,23.10
2022-09-23T08:07:52.490Z,23.20
2022-09-23T08:10:21.380Z,23.30
2022-09-23T08:12:50.387Z,23.20
2022-09-23T08:15:19.421Z,23.30
2022-09-23T08:17:49.994Z,23.20
2022-09-23T08:20:32.995Z,23.30
2022-09-23T08:23:02.115Z,23.30
2022-09-23T08:25:34.305Z,23.30
2022-09-23T08:28:04.318Z,23.50
2022-09-23T08:30:33.276Z,23.60
2022-09-23T08:33:03.705Z,23.60
2022-09-23T08:35:32.700Z,23.70
2022-09-23T08:38:01.757Z,23.60
2022-09-23T08:40:31.393Z,23.70
2022-09-23T08:43:01.809Z,23.60
2022-09-23T08:45:30.719Z,23.80
2022-09-23T08:48:09.594Z,23.80
2022-09-23T08:50:43.677Z,23.90
2022-09-23T08:53:22.015Z,23.90
2022-09-23T08:55:53.624Z,23.90
2022-09-23T08:58:37.662Z,24.00
2022-09-23T09:01:18.507Z,24.10
2022-09-23T09:03:52.188Z,24.20
2022-09-23T09:06:27.892Z,24.30
2022-09-23T09:09:01.186Z,24.40
2022-09-23T09:11:35.569Z,24.60
2022-09-23T09:14:14.720Z,24.60
2022-09-23T09:17:00.945Z,24.60
2022-09-23T09:20:01.464Z,24.60
2022-09-23T09:22:45.146Z,24.50
2022-09-23T09:25:25.023Z,24.60
2022-09-23T09:27:56.084Z,24.60
2022-09-23T09:30:26.003Z,24.80
2022-09-23T09:33:01.388Z,25.00
2022-09-23T09:35:38.456Z,25.10
2022-09-23T09:38:08.030Z,25.10
2022-09-23T09:40:41.383Z,25.30
2022-09-23T09:43:10.671Z,25.50
2022-09-23T09:45:58.016Z,25.40
2022-09-23T09:48:38.009Z,25.40
2022-09-23T09:51:21.829Z,25.40
2022-09-23T09:53:52.714Z,25.30
2022-09-23T09:56:27.181Z,25.60
2022-09-23T09:59:03.032Z,25.80
2022-09-23T10:01:34.849Z,25.40
2022-09-23T10:04:06.909Z,25.70
2022-09-23T10:06:37.774Z,25.80
2022-09-23T10:09:19.462Z,25.60
2022-09-23T10:12:04.380Z,25.70
2022-09-23T10:14:33.292Z,25.80
2022-09-23T10:17:07.814Z,25.80
2022-09-23T10:19:38.186Z,26.00
2022-09-23T10:22:22.574Z,26.10
2022-09-23T10:24:55.669Z,26.00
2022-09-23T10:27:31.682Z,26.30
2022-09-23T10:30:03.692Z,26.20
2022-09-23T10:32:36.937Z,26.10
2022-09-23T10:35:15.280Z,26.30
2022-09-23T10:37:48.543Z,26.30
2022-09-23T10:40:38.276Z,26.30
2022-09-23T10:43:42.881Z,26.20
2022-09-23T10:46:36.437Z,26.40
2022-09-23T10:49:20.982Z,26.50
2022-09-23T10:52:02.693Z,26.10
2022-09-23T10:54:45.266Z,26.00
2022-09-23T10:57:40.819Z,25.60
2022-09-23T11:00:23.533Z,25.50
2022-09-23T11:03:16.091Z,25.30
2022-09-23T11:05:50.453Z,25.50
2022-09-23T11:08:40.968Z,25.60
2022-09-23T11:11:26.038Z,25.80
2022-09-23T11:14:28.154Z,25.90
2022-09-23T11:17:14.989Z,26.10
2022-09-23T11:20:10.998Z,26.00
2022-09-23T11:23:05.084Z,25.90
2022-09-23T11:25:50.755Z,25.80
2022-09-23T11:28:46.744Z,25.80
2022-09-23T11:31:27.968Z,25.80
2022-09-23T11:34:11.630Z,25.60
2022-09-23T11:36:46.206Z,25.50
2022-09-23T11:39:19.511Z,25.50
2022-09-23T11:41:50.720Z,25.40
2022-09-23T11:44:27.953Z,25.00
2022-09-23T11:47:03.143Z,25.30
2022-09-23T11:49:36.021Z,25.50
2022-09-23T11:52:10.632Z,25.60
2022-09-23T11:54:45.307Z,25.60
2022-09-23T11:57:21.783Z,25.60
2022-09-23T11:59:57.848Z,25.50
2022-09-23T12:02:32.235Z,25.50
2022-09-23T12:05:05.211Z,25.40
2022-09-23T12:07:45.954Z,25.50
2022-09-23T12:10:16.499Z,25.50
2022-09-23T12:12:56.276Z,25.50
2022-09-23T12:15:39.710Z,25.30
2022-09-23T12:18:30.545Z,25.10
2022-09-23T12:21:48.830Z,25.10
2022-09-23T12:24:31.538Z,25.30
2022-09-23T12:27:06.513Z,25.80
2022-09-23T12:29:38.789Z,26.00
2022-09-23T12:32:18.558Z,25.80
2022-09-23T12:34:52.142Z,25.80
2022-09-23T12:37:29.420Z,25.60
2022-09-23T12:40:07.671Z,25.60
2022-09-23T12:42:44.421Z,25.40
2022-09-23T12:45:36.458Z,25.40
2022-09-23T12:48:28.273Z,25.50
2022-09-23T12:50:59.855Z,25.60
2022-09-23T12:53:55.310Z,25.60
2022-09-23T12:56:30.044Z,25.60
2022-09-23T12:59:26.118Z,25.60
2022-09-23T13:01:56.197Z,25.60
2022-09-23T13:05:10.825Z,25.60
2022-09-23T13:07:45.653Z,25.90
2022-09-23T13:10:20.262Z,25.90
2022-09-23T13:12:49.621Z,25.80
2022-09-23T13:15:27.915Z,25.80
2022-09-23T13:18:40.036Z,25.70
2022-09-23T13:21:20.722Z,26.00
2022-09-23T13:24:23.262Z,26.00
2022-09-23T13:26:55.614Z,26.20
2022-09-23T13:29:28.942Z,26.20
2022-09-23T13:31:59.034Z,26.30
2022-09-23T13:34:32.340Z,26.70
2022-09-23T13:37:22.199Z,26.90
2022-09-23T13:39:52.068Z,26.80
2022-09-23T13:42:28.423Z,26.30
2022-09-23T13:45:00.520Z,26.30
2022-09-23T13:47:31.535Z,26.40
2022-09-23T13:50:00.822Z,26.30
2022-09-23T13:52:33.956Z,26.40
2022-09-23T13:55:03.301Z,26.40
2022-09-23T13:57:35.256Z,26.20
2022-09-23T14:00:17.796Z,26.30
2022-09-23T14:02:47.492Z,26.30
2022-09-23T14:05:24.725Z,26.40
2022-09-23T14:07:57.445Z,26.40
2022-09-23T14:10:28.103Z,26.20
2022-09-23T14:12:59.504Z,26.30
2022-09-23T14:15:28.658Z,26.50
2022-09-23T14:18:03.343Z,26.60
2022-09-23T14:20:32.312Z,26.50
2022-09-23T14:23:13.006Z,26.20
2022-09-23T14:25:43.251Z,26.10
2022-09-23T14:28:18.694Z,26.20
2022-09-23T14:30:49.046Z,26.20
2022-09-23T14:33:22.186Z,26.00
2022-09-23T14:35:53.833Z,25.90
2022-09-23T14:38:44.426Z,25.80
2022-09-23T14:41:22.135Z,25.90
2022-09-23T14:43:55.199Z,25.90
2022-09-23T14:46:26.171Z,25.80
2022-09-23T14:49:02.742Z,25.80
2022-09-23T14:51:42.097Z,25.90
2022-09-23T14:54:46.959Z,25.70
2022-09-23T14:57:27.175Z,25.60
2022-09-23T15:00:00.585Z,25.60
2022-09-23T15:02:33.105Z,25.60
2022-09-23T15:05:16.122Z,25.70
2022-09-23T15:07:48.785Z,25.90
2022-09-23T15:10:28.060Z,26.00
2022-09-23T15:13:06.723Z,25.90
2022-09-23T15:15:36.743Z,25.70
2022-09-23T15:18:08.373Z,25.90
2022-09-23T15:20:38.282Z,25.70
2022-09-23T15:23:07.528Z,25.70
2022-09-23T15:25:42.847Z,25.40
2022-09-23T15:28:24.237Z,25.40
2022-09-23T15:30:53.662Z,25.60
2022-09-23T15:33:28.160Z,25.60
2022-09-23T15:35:58.542Z,25.60
2022-09-23T15:38:28.157Z,25.70
2022-09-23T15:40:59.246Z,25.70
2022-09-23T15:43:28.689Z,25.50
2022-09-23T15:46:00.942Z,25.50
2022-09-23T15:48:33.093Z,25.50
2022-09-23T15:51:07.041Z,25.70
2022-09-23T15:53:36.680Z,25.80
2022-09-23T15:56:07.796Z,25.50
2022-09-23T15:58:37.207Z,25.60
2022-09-23T16:01:07.318Z,25.60
2022-09-23T16:03:36.726Z,25.70
2022-09-23T16:06:06.388Z,25.80
2022-09-23T16:08:35.523Z,25.80
2022-09-23T16:11:05.675Z,25.70
2022-09-23T16:13:36.947Z,25.50
2022-09-23T16:16:08.183Z,25.40
2022-09-23T16:18:38.448Z,25.30
2022-09-23T16:21:09.600Z,25.40
2022-09-23T16:23:44.043Z,25.30
2022-09-23T16:26:18.541Z,25.20
2022-09-23T16:28:50.720Z,25.40
2022-09-23T16:31:20.464Z,25.50
2022-09-23T16:33:51.600Z,25.50
2022-09-23T16:36:26.085Z,25.30
2022-09-23T16:38:56.714Z,25.30
2022-09-23T16:41:26.428Z,25.30
2022-09-23T16:43:57.295Z,25.20
2022-09-23T16:46:26.310Z,25.20
2022-09-23T16:48:57.507Z,25.00
2022-09-23T16:51:29.043Z,25.00
2022-09-23T16:53:59.296Z,25.00
2022-09-23T16:56:31.388Z,25.10
2022-09-23T16:59:02.076Z,25.10
2022-09-23T17:01:49.322Z,25.20
2022-09-23T17:04:20.269Z,25.10
2022-09-23T17:06:50.556Z,25.30
2022-09-23T17:09:20.685Z,25.20
2022-09-23T17:11:56.549Z,25.10
2022-09-23T17:14:27.022Z,25.00
2022-09-23T17:16:56.252Z,24.90
2022-09-23T17:19:25.115Z,24.90
2022-09-23T17:21:55.128Z,24.80
2022-09-23T17:24:24.681Z,24.90
2022-09-23T17:26:53.712Z,24.90
2022-09-23T17:29:22.649Z,25.00
2022-09-23T17:31:53.180Z,24.80
2022-09-23T17:34:22.242Z,24.70
2022-09-23T17:36:51.311Z,24.80
2022-09-23T17:39:20.174Z,24.90
2022-09-23T17:41:49.706Z,24.80
2022-09-23T17:44:19.590Z,24.80
2022-09-23T17:46:49.375Z,24.80
2022-09-23T17:49:20.604Z,24.80
2022-09-23T17:51:50.073Z,24.90
2022-09-23T17:54:18.865Z,24.90
2022-09-23T17:56:48.157Z,24.80
2022-09-23T17:59:17.158Z,24.80
2022-09-23T18:01:46.624Z,24.90
2022-09-23T18:04:15.692Z,24.70
2022-09-23T18:06:47.483Z,24.60
2022-09-23T18:09:16.938Z,24.60
2022-09-23T18:11:48.262Z,24.70
2022-09-23T18:14:19.752Z,24.70
2022-09-23T18:16:51.818Z,24.80
2022-09-23T18:19:22.962Z,24.80
2022-09-23T18:21:56.342Z,24.60
2022-09-23T18:24:33.973Z,24.50
2022-09-23T18:27:03.152Z,24.40
2022-09-23T18:29:32.072Z,24.40
2022-09-23T18:32:01.213Z,24.40
2022-09-23T18:34:31.091Z,24.30
2022-09-23T18:37:01.609Z,24.10
2022-09-23T18:39:30.564Z,24.20
2022-09-23T18:42:00.318Z,24.00
2022-09-23T18:44:29.185Z,24.00
2022-09-23T18:46:58.094Z,24.00
2022-09-23T18:49:44.495Z,23.90
2022-09-23T18:52:16.094Z,24.00
2022-09-23T18:54:45.094Z,23.90
2022-09-23T18:57:15.426Z,24.00
2022-09-23T18:59:47.501Z,23.80
2022-09-23T19:02:17.398Z,23.80
2022-09-23T19:04:46.394Z,24.00
2022-09-23T19:07:17.466Z,23.90
2022-09-23T19:09:46.651Z,23.80
2022-09-23T19:12:15.650Z,23.80
2022-09-23T19:14:44.936Z,23.80
2022-09-23T19:17:13.710Z,23.90
2022-09-23T19:19:42.745Z,23.80
2022-09-23T19:22:11.699Z,23.80
2022-09-23T19:24:42.135Z,23.90
2022-09-23T19:27:11.471Z,23.80
2022-09-23T19:29:40.516Z,23.90
2022-09-23T19:32:09.646Z,23.90
2022-09-23T19:34:38.850Z,23.90
2022-09-23T19:37:07.908Z,23.90
2022-09-23T19:39:37.757Z,24.00
2022-09-23T19:42:08.338Z,23.80
2022-09-23T19:44:40.149Z,24.00
2022-09-23T19:47:15.591Z,23.90
2022-09-23T19:49:44.787Z,23.90
2022-09-23T19:52:13.771Z,23.90
2022-09-23T19:54:42.642Z,23.80
2022-09-23T19:57:13.062Z,23.70
2022-09-23T19:59:42.227Z,23.60
2022-09-23T20:02:12.038Z,23.80
2022-09-23T20:04:41.597Z,23.90
2022-09-23T20:07:10.368Z,23.90
2022-09-23T20:09:39.739Z,23.90
2022-09-23T20:12:08.591Z,23.80
2022-09-23T20:14:39.114Z,23.90
2022-09-23T20:17:08.676Z,24.00
2022-09-23T20:19:37.594Z,23.90
2022-09-23T20:22:23.751Z,23.80
2022-09-23T20:24:52.893Z,23.80
2022-09-23T20:27:20.697Z,23.80
2022-09-23T20:29:51.691Z,23.70
2022-09-23T20:32:20.994Z,23.70
2022-09-23T20:34:49.935Z,23.60
2022-09-23T20:37:20.517Z,23.70
2022-09-23T20:39:49.917Z,23.80
2022-09-23T20:42:20.319Z,23.80
2022-09-23T20:44:50.770Z,23.70
2022-09-23T20:47:20.483Z,23.70
2022-09-23T20:49:49.549Z,23.60
2022-09-23T20:52:20.594Z,23.80
2022-09-23T20:54:51.799Z,23.80
2022-09-23T20:57:21.779Z,23.80
2022-09-23T20:59:52.133Z,23.70
2022-09-23T21:02:21.844Z,23.70
2022-09-23T21:04:51.219Z,23.60
2022-09-23T21:07:20.189Z,23.40
2022-09-23T21:09:49.140Z,23.40
2022-09-23T21:12:17.994Z,23.50
2022-09-23T21:14:46.838Z,23.60
2022-09-23T21:17:17.545Z,23.40
2022-09-23T21:19:46.566Z,23.20
2022-09-23T21:22:15.932Z,23.10
2022-09-23T21:25:25.888Z,23.10
2022-09-23T21:27:37.338Z,23.00
2022-09-23T21:30:07.671Z,22.80
2022-09-23T21:32:38.057Z,22.90
2022-09-23T21:35:07.794Z,22.70
2022-09-23T21:37:36.785Z,22.90
2022-09-23T21:40:23.746Z,22.90
2022-09-23T21:42:52.792Z,22.90
2022-09-23T21:45:21.760Z,23.00
2022-09-23T21:47:52.214Z,23.00
2022-09-23T21:50:21.279Z,22.80
2022-09-23T21:52:52.146Z,22.90
2022-09-23T21:55:21.469Z,23.00
2022-09-23T21:57:51.722Z,22.80
2022-09-23T22:00:20.820Z,22.70
2022-09-23T22:02:49.681Z,22.60
2022-09-23T22:05:21.769Z,22.50
2022-09-23T22:07:50.691Z,22.60
2022-09-23T22:10:19.736Z,22.50
2022-09-23T22:12:49.744Z,22.60
2022-09-23T22:15:19.884Z,22.60
2022-09-23T22:17:49.269Z,22.70
2022-09-23T22:20:20.409Z,22.70
2022-09-23T22:22:50.424Z,22.70
2022-09-23T22:25:19.390Z,22.80
2022-09-23T22:28:02.145Z,22.90
2022-09-23T22:30:48.331Z,22.90
2022-09-23T22:33:17.578Z,22.90
2022-09-23T22:35:48.162Z,22.90
2022-09-23T22:38:17.259Z,22.90
2022-09-23T22:40:46.186Z,22.90
2022-09-23T22:43:15.238Z,23.00
2022-09-23T22:45:51.704Z,23.00
2022-09-23T22:48:21.203Z,23.00
2022-09-23T22:50:51.447Z,22.90
2022-09-23T22:53:20.383Z,22.90
2022-09-23T22:56:01.201Z,23.00
2022-09-23T22:58:32.669Z,23.00
2022-09-23T23:01:02.589Z,22.90
2022-09-23T23:03:34.579Z,22.60
2022-09-23T23:06:06.372Z,22.60
2022-09-23T23:08:36.104Z,22.60
2022-09-23T23:11:10.252Z,22.60
2022-09-23T23:13:42.153Z,22.70
2022-09-23T23:16:13.537Z,22.70
2022-09-23T23:18:44.992Z,22.50
2022-09-23T23:21:17.381Z,22.60
2022-09-23T23:23:48.114Z,22.70
2022-09-23T23:26:20.126Z,22.50
2022-09-23T23:28:50.653Z,22.30
2022-09-23T23:31:21.747Z,22.30
2022-09-23T23:33:50.897Z,22.60
2022-09-23T23:36:23.563Z,22.80
2022-09-23T23:38:53.116Z,22.70
2022-09-23T23:41:23.850Z,22.30
2022-09-23T23:43:58.082Z,20.90
2022-09-23T23:46:28.484Z,20.20
2022-09-23T23:48:58.210Z,19.80
2022-09-23T23:51:29.247Z,19.70
2022-09-23T23:53:59.812Z,19.40
2022-09-23T23:56:31.307Z,18.90
2022-09-23T23:59:02.792Z,18.80
